createdAt,value
2018-12-02T08:49:57.392Z,32.45
2018-12-02T08:52:28.318Z,34.63
2018-12-02T08:54:59.074Z,36.05
2018-12-02T08:57:29.204Z,33.45
2018-12-02T09:00:00.052Z,32.23
2018-12-02T09:02:30.074Z,30.97
2018-12-02T09:04:59.964Z,34.18
2018-12-02T09:07:29.239Z,36.17
2018-12-02T09:09:59.722Z,32.58
2018-12-02T09:12:39.794Z,33.40
2018-12-02T09:15:12.269Z,33.05
2018-12-02T09:17:45.903Z,32.15
2018-12-02T09:20:20.672Z,29.72
2018-12-02T09:22:53.329Z,31.93
2018-12-02T09:25:31.385Z,32.75
2018-12-02T09:28:09.301Z,32.80
2018-12-02T09:30:41.289Z,30.00
2018-12-02T09:33:13.310Z,35.90
2018-12-02T09:35:44.074Z,30.75
2018-12-02T09:38:14.139Z,28.90
2018-12-02T09:40:44.738Z,28.67
2018-12-02T09:43:15.726Z,29.32
2018-12-02T09:45:46.117Z,27.37
2018-12-02T09:48:17.367Z,30.23
2018-12-02T09:50:47.418Z,28.90
2018-12-02T09:53:17.732Z,26.10
2018-12-02T09:55:49.338Z,25.45
2018-12-02T09:58:25.193Z,25.60
2018-12-02T10:00:56.083Z,28.05
2018-12-02T10:03:26.075Z,23.32
2018-12-02T10:05:55.333Z,27.37
2018-12-02T10:08:24.289Z,31.12
2018-12-02T10:10:53.850Z,29.87
2018-12-02T10:13:24.614Z,28.57
2018-12-02T10:15:55.657Z,29.20
2018-12-02T10:18:26.889Z,29.48
2018-12-02T10:20:57.464Z,30.08
2018-12-02T10:23:27.362Z,31.00
2018-12-02T10:25:57.265Z,32.05
2018-12-02T10:28:28.701Z,30.02
2018-12-02T10:31:00.056Z,28.87
2018-12-02T10:33:29.947Z,30.15
2018-12-02T10:36:00.782Z,28.77
2018-12-02T10:38:32.137Z,30.05
2018-12-02T10:41:02.664Z,26.77
2018-12-02T10:43:32.543Z,26.23
2018-12-02T10:46:03.434Z,29.15
2018-12-02T10:48:33.334Z,31.27
2018-12-02T10:51:03.208Z,29.05
2018-12-02T10:53:33.007Z,28.90
2018-12-02T10:56:02.878Z,27.93
2018-12-02T10:58:35.786Z,29.77
2018-12-02T11:01:11.912Z,30.10
2018-12-02T11:03:41.494Z,28.57
2018-12-02T11:06:11.549Z,26.82
2018-12-02T11:08:41.409Z,30.12
2018-12-02T11:11:11.359Z,26.75
2018-12-02T11:13:41.225Z,28.00
2018-12-02T11:16:12.158Z,28.55
2018-12-02T11:18:42.851Z,28.87
2018-12-02T11:21:12.982Z,27.02
2018-12-02T11:23:43.636Z,27.27
2018-12-02T11:26:13.833Z,25.57
2018-12-02T11:28:44.593Z,27.35
2018-12-02T11:31:14.600Z,27.45
2018-12-02T11:33:44.394Z,29.10
2018-12-02T11:36:14.382Z,27.35
2018-12-02T11:38:44.208Z,29.55
2018-12-02T11:41:15.041Z,27.95
2018-12-02T11:43:45.069Z,29.40
2018-12-02T11:46:14.907Z,29.90
2018-12-02T11:48:46.130Z,26.85
2018-12-02T11:51:16.662Z,30.27
2018-12-02T11:53:46.664Z,31.55
2018-12-02T11:56:16.477Z,27.80
2018-12-02T11:58:46.356Z,31.87
2018-12-02T12:01:16.220Z,28.35
2018-12-02T12:03:46.107Z,29.35
2018-12-02T12:06:17.744Z,27.40
2018-12-02T12:08:47.930Z,29.90
2018-12-02T12:11:18.529Z,30.27
2018-12-02T12:13:48.688Z,28.70
2018-12-02T12:16:18.587Z,28.57
2018-12-02T12:18:49.402Z,28.12
2018-12-02T12:21:20.239Z,31.57
2018-12-02T12:23:50.973Z,28.80
2018-12-02T12:26:21.150Z,29.75
2018-12-02T12:28:51.752Z,29.42
2018-12-02T12:31:21.886Z,31.10
2018-12-02T12:33:52.793Z,30.92
2018-12-02T12:36:22.665Z,31.12
2018-12-02T12:38:52.539Z,28.42
2018-12-02T12:41:22.227Z,28.85
2018-12-02T12:43:52.286Z,31.75
2018-12-02T12:46:23.110Z,30.50
2018-12-02T12:48:53.089Z,28.77
2018-12-02T12:51:23.671Z,28.65
2018-12-02T12:53:53.862Z,30.45
2018-12-02T12:56:23.721Z,28.73
2018-12-02T12:58:52.766Z,26.65
2018-12-02T13:01:21.762Z,27.40
2018-12-02T13:03:50.678Z,26.30
2018-12-02T13:06:19.772Z,27.65
2018-12-02T13:08:50.050Z,27.80
2018-12-02T13:11:23.603Z,29.10
2018-12-02T13:15:49.356Z,28.98
2018-12-02T13:21:40.098Z,31.23
2018-12-02T13:27:44.390Z,29.95
2018-12-02T13:30:16.270Z,32.08
2018-12-02T13:35:56.291Z,31.37
2018-12-02T13:38:31.225Z,33.78
2018-12-02T13:41:12.600Z,35.75
2018-12-02T13:43:59.437Z,34.55
2018-12-02T13:46:37.740Z,34.90
2018-12-02T13:49:14.396Z,34.60
2018-12-02T13:51:56.661Z,32.50
2018-12-02T13:54:40.336Z,31.73
2018-12-02T13:57:26.671Z,33.75
2018-12-02T14:02:42.900Z,34.90
2018-12-02T14:05:30.679Z,38.35
2018-12-02T14:10:48.591Z,36.95
2018-12-02T14:13:28.911Z,39.73
2018-12-02T14:16:09.214Z,40.28
2018-12-02T14:18:54.828Z,37.00
2018-12-02T14:30:22.569Z,38.45
2018-12-02T14:32:56.098Z,37.70
2018-12-02T14:35:30.709Z,37.00
2018-12-02T14:38:06.504Z,37.98
2018-12-02T14:40:42.510Z,35.15
2018-12-02T15:41:07.846Z,34.55
2018-12-02T15:43:44.986Z,37.88
2018-12-02T15:53:54.509Z,31.05
2018-12-02T16:05:08.472Z,34.43
2018-12-02T16:07:42.015Z,34.03
2018-12-02T16:54:07.072Z,32.25
2018-12-02T16:56:39.074Z,32.40
2018-12-02T16:59:23.006Z,34.50
2018-12-02T17:01:57.953Z,36.20
2018-12-02T17:07:07.171Z,37.20
2018-12-02T17:09:37.139Z,34.60
2018-12-02T17:12:07.992Z,35.00
2018-12-02T17:14:38.856Z,36.65
2018-12-02T17:17:09.817Z,39.80
2018-12-02T17:19:40.425Z,32.00
2018-12-02T17:22:10.634Z,37.03
2018-12-02T17:24:41.863Z,34.53
2018-12-02T17:39:22.994Z,30.52
2018-12-02T18:17:47.102Z,34.10
2018-12-02T18:20:18.672Z,33.80
2018-12-02T18:22:48.663Z,35.63
2018-12-02T18:25:20.605Z,35.58
